Time;durP1;ratioP1;P1;durP2;ratioP2;P2;SDS_P1;SDS_P2;PMS_P1;PMS_P2;Temp;Humidity;BMP_temperature;BMP_pressure;BME280_temperature;BME280_humidity;BME280_pressure;Samples;Min_cycle;Max_cycle;Signal;HPM_P1;HPM_P2
2021/05/07 00:00:07;;;;;;;1.30;1.20;;;;;;;;;;5011768;28;20200;-62
2021/05/07 00:02:34;;;;;;;1.53;1.40;;;;;;;;;;5008939;28;20212;-61
2021/05/07 00:05:00;;;;;;;1.60;1.50;;;;;;;;;;5004127;28;20552;-61
2021/05/07 00:07:26;;;;;;;1.57;1.47;;;;;;;;;;5013328;28;20537;-61
2021/05/07 00:09:52;;;;;;;1.57;1.47;;;;;;;;;;5003885;28;20264;-61
2021/05/07 00:12:18;;;;;;;1.63;1.53;;;;;;;;;;5008471;28;20220;-61
2021/05/07 00:14:44;;;;;;;1.60;1.50;;;;;;;;;;5000496;28;20660;-61
2021/05/07 00:17:10;;;;;;;1.50;1.40;;;;;;;;;;5009988;28;20185;-61
2021/05/07 00:19:36;;;;;;;1.60;1.50;;;;;;;;;;5006340;28;20660;-61
2021/05/07 00:22:02;;;;;;;1.50;1.40;;;;;;;;;;4996650;28;20213;-65
2021/05/07 00:24:28;;;;;;;1.43;1.23;;;;;;;;;;4998248;28;20240;-61
2021/05/07 00:26:56;;;;;;;1.47;1.37;;;;;;;;;;5009218;28;20720;-61
2021/05/07 00:29:22;;;;;;;1.50;1.40;;;;;;;;;;5001277;28;20290;-61
2021/05/07 00:31:48;;;;;;;1.40;1.40;;;;;;;;;;5001288;28;20245;-61
2021/05/07 00:34:14;;;;;;;1.40;1.30;;;;;;;;;;5008975;28;20657;-61
2021/05/07 00:36:40;;;;;;;1.20;1.20;;;;;;;;;;5000149;28;20259;-61
2021/05/07 00:39:06;;;;;;;1.30;1.30;;;;;;;;;;5004003;28;20193;-61
2021/05/07 00:41:32;;;;;;;1.67;1.57;;;;;;;;;;5002829;28;20213;-61
2021/05/07 00:43:58;;;;;;;1.60;1.37;;;;;;;;;;5006306;28;20215;-61
2021/05/07 00:46:24;;;;;;;1.90;1.80;;;;;;;;;;5002215;28;20268;-61
2021/05/07 00:48:50;;;;;;;1.50;1.40;;;;;;;;;;5000149;28;20283;-61
2021/05/07 00:51:16;;;;;;;1.30;1.30;;;;;;;;;;4996588;28;20307;-62
2021/05/07 00:53:42;;;;;;;1.37;1.27;;;;;;;;;;5008176;28;20220;-61
2021/05/07 00:56:08;;;;;;;1.40;1.40;;;;;;;;;;5005258;28;20196;-61
2021/05/07 00:58:34;;;;;;;1.50;1.40;;;;;;;;;;4996243;28;20190;-62
2021/05/07 01:01:00;;;;;;;1.50;1.40;;;;;;;;;;5004264;28;20672;-59
2021/05/07 01:03:26;;;;;;;2.17;1.50;;;;;;;;;;5003792;28;20552;-62
2021/05/07 01:05:52;;;;;;;1.50;1.40;;;;;;;;;;4998050;28;20937;-63
2021/05/07 01:08:20;;;;;;;1.53;1.43;;;;;;;;;;5003231;28;20189;-61
2021/05/07 01:10:46;;;;;;;1.50;1.40;;;;;;;;;;4999782;28;20217;-63
2021/05/07 01:13:12;;;;;;;1.50;1.40;;;;;;;;;;5000968;28;20324;-62
2021/05/07 01:15:38;;;;;;;1.60;1.50;;;;;;;;;;5003454;28;20196;-63
2021/05/07 01:18:05;;;;;;;2.03;1.50;;;;;;;;;;5001217;28;20903;-61
2021/05/07 01:20:32;;;;;;;1.53;1.43;;;;;;;;;;5001249;28;20348;-61
2021/05/07 01:23:03;;;;;;;1.50;1.40;;;;;;;;;;5004058;28;20676;-61
2021/05/07 01:25:30;;;;;;;1.50;1.40;;;;;;;;;;5003235;28;20185;-62
2021/05/07 01:27:58;;;;;;;1.40;1.40;;;;;;;;;;5009687;28;20200;-61
2021/05/07 01:30:25;;;;;;;1.60;1.50;;;;;;;;;;5006467;28;20199;-60
2021/05/07 01:32:51;;;;;;;1.63;1.53;;;;;;;;;;4997084;28;20273;-61
2021/05/07 01:35:19;;;;;;;1.60;1.50;;;;;;;;;;5004153;28;20854;-60
2021/05/07 01:37:46;;;;;;;1.20;1.20;;;;;;;;;;5002667;28;20216;-62
2021/05/07 01:40:23;;;;;;;1.60;1.50;;;;;;;;;;5002676;28;20193;-61
2021/05/07 01:42:50;;;;;;;1.83;1.50;;;;;;;;;;4995459;28;20216;-61
2021/05/07 01:45:17;;;;;;;2.30;1.47;;;;;;;;;;5011267;28;20243;-63
2021/05/07 01:47:44;;;;;;;1.80;1.70;;;;;;;;;;5001673;28;20176;-63
2021/05/07 01:50:11;;;;;;;1.70;1.60;;;;;;;;;;5000679;28;20190;-63
2021/05/07 01:52:37;;;;;;;1.30;1.30;;;;;;;;;;4999557;28;20192;-61
2021/05/07 01:55:06;;;;;;;1.50;1.40;;;;;;;;;;5010057;28;20212;-61
2021/05/07 01:57:32;;;;;;;1.43;1.43;;;;;;;;;;5005900;28;20188;-62
2021/05/07 01:59:59;;;;;;;1.67;1.57;;;;;;;;;;4999530;28;20197;-60
2021/05/07 02:02:25;;;;;;;1.30;1.30;;;;;;;;;;5003071;28;20228;-62
2021/05/07 02:04:51;;;;;;;1.30;1.20;;;;;;;;;;4999527;28;20208;-61
2021/05/07 02:07:17;;;;;;;1.40;1.30;;;;;;;;;;5002037;28;20741;-61
2021/05/07 02:09:43;;;;;;;1.30;1.30;;;;;;;;;;5005539;28;20194;-61
2021/05/07 02:12:09;;;;;;;1.23;1.13;;;;;;;;;;5002246;28;20208;-60
2021/05/07 02:14:36;;;;;;;1.27;1.27;;;;;;;;;;4999499;28;20661;-61
2021/05/07 02:17:02;;;;;;;1.27;1.27;;;;;;;;;;4997068;28;20185;-61
2021/05/07 02:19:28;;;;;;;0.93;0.93;;;;;;;;;;5010044;28;20195;-61
2021/05/07 02:21:54;;;;;;;1.03;1.03;;;;;;;;;;5002157;28;20218;-60
2021/05/07 02:24:20;;;;;;;1.37;1.30;;;;;;;;;;5003004;28;20206;-61
2021/05/07 02:26:47;;;;;;;1.13;1.03;;;;;;;;;;5003712;28;20200;-61
2021/05/07 02:29:13;;;;;;;1.00;1.00;;;;;;;;;;5001824;28;20177;-61
2021/05/07 02:31:39;;;;;;;1.00;1.00;;;;;;;;;;5001408;28;20208;-61
2021/05/07 02:34:05;;;;;;;1.03;1.03;;;;;;;;;;4995384;28;20297;-61
2021/05/07 02:36:31;;;;;;;1.30;1.30;;;;;;;;;;4996000;28;20185;-61
2021/05/07 02:38:57;;;;;;;0.90;0.90;;;;;;;;;;4999820;28;20688;-60
2021/05/07 02:41:23;;;;;;;1.40;1.40;;;;;;;;;;5006313;28;20638;-61
2021/05/07 02:43:49;;;;;;;1.27;1.27;;;;;;;;;;5002846;28;20215;-61
2021/05/07 02:46:15;;;;;;;2.70;1.27;;;;;;;;;;5002592;28;20544;-60
2021/05/07 02:48:41;;;;;;;1.67;1.27;;;;;;;;;;4999330;28;20193;-63
2021/05/07 02:51:07;;;;;;;1.47;1.37;;;;;;;;;;5008997;28;20253;-61
2021/05/07 02:53:33;;;;;;;1.20;1.20;;;;;;;;;;5006643;28;20267;-60
2021/05/07 02:55:59;;;;;;;1.30;1.30;;;;;;;;;;4998947;28;20577;-61
2021/05/07 02:58:25;;;;;;;1.13;1.13;;;;;;;;;;5008541;28;20199;-62
2021/05/07 03:00:51;;;;;;;1.63;1.23;;;;;;;;;;5000540;28;20311;-61
2021/05/07 03:03:17;;;;;;;1.53;1.37;;;;;;;;;;5003170;28;20310;-61
2021/05/07 03:05:43;;;;;;;1.30;1.30;;;;;;;;;;5012725;28;20660;-61
2021/05/07 03:08:09;;;;;;;1.57;1.23;;;;;;;;;;5014938;28;20185;-60
2021/05/07 03:10:35;;;;;;;1.20;1.20;;;;;;;;;;5018901;28;20213;-60
2021/05/07 03:13:01;;;;;;;1.20;1.20;;;;;;;;;;5021916;28;20188;-60
2021/05/07 03:15:29;;;;;;;2.47;1.20;;;;;;;;;;5007181;28;20216;-62
2021/05/07 03:17:55;;;;;;;1.40;1.30;;;;;;;;;;5007951;28;20296;-62
2021/05/07 03:20:21;;;;;;;1.50;1.40;;;;;;;;;;5001853;28;20193;-62
2021/05/07 03:22:47;;;;;;;1.27;1.27;;;;;;;;;;5014408;28;20259;-61
2021/05/07 03:25:14;;;;;;;1.43;1.13;;;;;;;;;;5004621;28;20189;-63
2021/05/07 03:27:40;;;;;;;1.10;1.10;;;;;;;;;;5004313;28;20207;-61
2021/05/07 03:30:06;;;;;;;1.27;1.17;;;;;;;;;;5006107;28;20679;-62
2021/05/07 03:32:32;;;;;;;1.43;1.33;;;;;;;;;;5002160;28;20672;-60
2021/05/07 03:34:59;;;;;;;1.73;1.50;;;;;;;;;;4998970;28;20581;-62
2021/05/07 03:37:25;;;;;;;1.27;1.23;;;;;;;;;;5003730;28;20789;-62
2021/05/07 03:39:51;;;;;;;1.50;1.40;;;;;;;;;;5009544;28;20183;-62
2021/05/07 03:42:17;;;;;;;1.30;1.23;;;;;;;;;;4996610;28;20749;-62
2021/05/07 03:44:43;;;;;;;1.50;1.40;;;;;;;;;;4993423;28;20271;-61
2021/05/07 03:47:09;;;;;;;1.93;1.77;;;;;;;;;;4999215;28;20181;-61
2021/05/07 03:49:35;;;;;;;1.80;1.70;;;;;;;;;;5005532;28;20661;-61
2021/05/07 03:52:01;;;;;;;2.80;1.90;;;;;;;;;;5002907;28;20224;-61
2021/05/07 03:54:28;;;;;;;1.77;1.60;;;;;;;;;;5005798;28;20241;-60
2021/05/07 03:56:54;;;;;;;2.07;1.90;;;;;;;;;;5001378;28;20247;-61
2021/05/07 03:59:20;;;;;;;2.10;2.00;;;;;;;;;;5001758;28;20657;-61
2021/05/07 04:01:46;;;;;;;2.23;2.13;;;;;;;;;;5001322;28;20213;-62
2021/05/07 04:04:12;;;;;;;2.50;2.30;;;;;;;;;;5007113;28;20579;-62
2021/05/07 04:06:38;;;;;;;2.50;2.30;;;;;;;;;;5002835;28;20195;-61
2021/05/07 04:09:14;;;;;;;3.77;2.73;;;;;;;;;;5003147;28;20193;-61
2021/05/07 04:12:11;;;;;;;2.90;2.70;;;;;;;;;;5001653;28;20199;-61
2021/05/07 04:14:37;;;;;;;3.20;2.90;;;;;;;;;;5002354;28;20243;-61
2021/05/07 04:17:03;;;;;;;3.13;2.83;;;;;;;;;;5002980;28;20243;-63
2021/05/07 04:19:29;;;;;;;4.37;2.47;;;;;;;;;;5003280;28;20214;-63
2021/05/07 04:21:55;;;;;;;2.43;2.30;;;;;;;;;;5008434;28;20743;-61
2021/05/07 04:24:21;;;;;;;2.80;2.50;;;;;;;;;;4999791;28;20213;-61
2021/05/07 04:26:47;;;;;;;2.50;2.37;;;;;;;;;;5004931;28;20196;-62
2021/05/07 04:29:13;;;;;;;2.67;2.33;;;;;;;;;;5000380;28;24363;-62
2021/05/07 04:31:39;;;;;;;2.83;2.40;;;;;;;;;;5012080;28;20203;-62
2021/05/07 04:34:06;;;;;;;2.30;2.20;;;;;;;;;;5006046;28;20229;-62
2021/05/07 04:36:32;;;;;;;2.57;2.00;;;;;;;;;;5007696;28;20650;-63
2021/05/07 04:38:58;;;;;;;2.73;1.90;;;;;;;;;;5000142;28;20189;-63
2021/05/07 04:41:25;;;;;;;1.97;1.60;;;;;;;;;;5001492;28;20263;-62
2021/05/07 04:43:53;;;;;;;1.73;1.63;;;;;;;;;;5001682;28;20729;-62
2021/05/07 04:46:19;;;;;;;1.93;1.83;;;;;;;;;;5001156;28;20251;-62
2021/05/07 04:48:45;;;;;;;2.17;1.70;;;;;;;;;;5011452;28;20651;-63
2021/05/07 04:51:11;;;;;;;1.80;1.70;;;;;;;;;;5001703;28;20201;-61
2021/05/07 04:53:37;;;;;;;3.23;1.93;;;;;;;;;;5004242;28;20195;-61
2021/05/07 04:56:03;;;;;;;1.80;1.70;;;;;;;;;;4997412;28;20211;-60
2021/05/07 04:58:29;;;;;;;3.70;2.03;;;;;;;;;;4999302;28;20204;-60
2021/05/07 05:00:55;;;;;;;1.90;1.80;;;;;;;;;;4999409;28;20214;-61
2021/05/07 05:03:21;;;;;;;2.40;2.20;;;;;;;;;;4997714;28;20684;-61
2021/05/07 05:05:47;;;;;;;2.77;2.50;;;;;;;;;;4997629;28;20201;-61
2021/05/07 05:08:20;;;;;;;2.90;1.90;;;;;;;;;;5006939;28;20212;-61
2021/05/07 05:10:46;;;;;;;1.70;1.60;;;;;;;;;;4993785;28;20339;-61
2021/05/07 05:13:12;;;;;;;2.30;2.10;;;;;;;;;;4995195;28;20208;-62
2021/05/07 05:15:38;;;;;;;2.10;1.90;;;;;;;;;;4998405;28;20220;-60
2021/05/07 05:18:04;;;;;;;1.60;1.50;;;;;;;;;;5000379;28;20310;-62
2021/05/07 05:20:30;;;;;;;1.50;1.40;;;;;;;;;;4996518;28;20289;-59
2021/05/07 05:22:56;;;;;;;1.63;1.53;;;;;;;;;;4995698;28;20235;-62
2021/05/07 05:25:22;;;;;;;3.93;2.13;;;;;;;;;;5004655;28;20287;-61
2021/05/07 05:27:48;;;;;;;2.13;1.97;;;;;;;;;;4995894;28;20698;-61
2021/05/07 05:30:14;;;;;;;1.80;1.70;;;;;;;;;;5000147;28;20182;-61
2021/05/07 05:32:40;;;;;;;3.17;1.83;;;;;;;;;;4993227;28;20205;-61
2021/05/07 05:35:06;;;;;;;1.77;1.67;;;;;;;;;;4997017;28;20179;-61
2021/05/07 05:37:33;;;;;;;2.40;1.57;;;;;;;;;;4997688;28;20547;-61
2021/05/07 05:39:59;;;;;;;4.60;2.00;;;;;;;;;;5011799;28;20188;-61
2021/05/07 05:42:25;;;;;;;2.60;2.17;;;;;;;;;;5014473;28;20233;-62
2021/05/07 05:44:51;;;;;;;3.40;1.90;;;;;;;;;;5012573;28;20224;-61
2021/05/07 05:47:17;;;;;;;3.90;3.60;;;;;;;;;;5002360;28;20202;-61
2021/05/07 05:49:43;;;;;;;2.90;2.70;;;;;;;;;;5005824;28;20557;-61
2021/05/07 05:52:09;;;;;;;1.80;1.70;;;;;;;;;;5001835;28;20230;-62
2021/05/07 05:54:35;;;;;;;2.37;1.90;;;;;;;;;;5002024;28;20200;-62
2021/05/07 05:57:01;;;;;;;2.50;2.30;;;;;;;;;;4999404;28;20215;-62
2021/05/07 05:59:27;;;;;;;2.03;1.93;;;;;;;;;;5003791;28;20261;-62
2021/05/07 06:01:53;;;;;;;2.30;2.10;;;;;;;;;;5000921;28;20262;-61
2021/05/07 06:04:19;;;;;;;1.83;1.73;;;;;;;;;;5000142;28;20648;-62
2021/05/07 06:06:46;;;;;;;2.13;1.90;;;;;;;;;;5003984;28;20314;-63
2021/05/07 06:09:13;;;;;;;1.97;1.87;;;;;;;;;;5008008;28;20277;-60
2021/05/07 06:11:39;;;;;;;2.40;2.30;;;;;;;;;;4997994;28;20250;-61
2021/05/07 06:14:05;;;;;;;2.07;1.70;;;;;;;;;;5004653;28;20742;-61
2021/05/07 06:16:31;;;;;;;2.20;2.00;;;;;;;;;;5021626;28;20270;-62
2021/05/07 06:18:57;;;;;;;2.10;1.90;;;;;;;;;;5003983;28;20710;-60
2021/05/07 06:21:23;;;;;;;2.00;1.90;;;;;;;;;;4999924;28;20209;-62
2021/05/07 06:23:49;;;;;;;2.30;2.20;;;;;;;;;;5001447;28;20233;-62
2021/05/07 06:26:15;;;;;;;2.40;2.30;;;;;;;;;;5001332;28;20279;-62
2021/05/07 06:28:41;;;;;;;2.03;1.93;;;;;;;;;;4998816;28;20267;-64
2021/05/07 06:31:07;;;;;;;2.20;2.00;;;;;;;;;;5007146;28;20211;-61
2021/05/07 06:33:33;;;;;;;4.23;2.90;;;;;;;;;;4997151;28;20198;-62
2021/05/07 06:36:00;;;;;;;2.97;2.77;;;;;;;;;;5001016;28;20196;-62
2021/05/07 06:38:26;;;;;;;3.70;3.40;;;;;;;;;;4999739;28;20688;-62
2021/05/07 06:40:52;;;;;;;3.53;3.30;;;;;;;;;;4999167;28;20245;-62
2021/05/07 06:43:18;;;;;;;3.93;3.50;;;;;;;;;;5000558;28;20295;-61
2021/05/07 06:45:44;;;;;;;2.93;2.73;;;;;;;;;;5003940;28;20220;-62
2021/05/07 06:48:10;;;;;;;4.00;3.70;;;;;;;;;;4998511;28;20192;-63
2021/05/07 06:50:36;;;;;;;5.90;4.00;;;;;;;;;;5002548;28;20216;-61
2021/05/07 06:53:02;;;;;;;4.40;4.00;;;;;;;;;;4997713;28;20193;-61
2021/05/07 06:55:28;;;;;;;5.33;4.83;;;;;;;;;;5002286;28;20216;-60
2021/05/07 06:57:54;;;;;;;5.03;4.60;;;;;;;;;;4998374;28;20200;-60
2021/05/07 07:00:20;;;;;;;4.67;4.27;;;;;;;;;;5001839;28;20215;-63
2021/05/07 07:02:46;;;;;;;5.77;4.97;;;;;;;;;;4999034;28;20273;-62
2021/05/07 07:05:12;;;;;;;5.43;4.93;;;;;;;;;;4999383;28;20729;-61
2021/05/07 07:07:39;;;;;;;6.20;5.70;;;;;;;;;;4993766;28;20255;-62
2021/05/07 07:10:06;;;;;;;6.60;5.67;;;;;;;;;;5004458;28;20267;-63
2021/05/07 07:12:32;;;;;;;5.80;5.30;;;;;;;;;;5006825;28;20204;-61
2021/05/07 07:14:58;;;;;;;6.00;5.50;;;;;;;;;;4999884;28;20200;-62
2021/05/07 07:17:24;;;;;;;5.73;5.23;;;;;;;;;;5007070;28;20193;-62
2021/05/07 07:19:50;;;;;;;6.50;5.87;;;;;;;;;;5004360;28;20236;-61
2021/05/07 07:22:17;;;;;;;6.70;6.10;;;;;;;;;;4996610;28;20260;-62
2021/05/07 07:24:43;;;;;;;8.63;6.17;;;;;;;;;;5001374;28;20308;-62
2021/05/07 07:27:10;;;;;;;6.10;5.50;;;;;;;;;;5008928;28;20739;-61
2021/05/07 07:29:36;;;;;;;6.60;5.97;;;;;;;;;;4997068;28;20222;-61
2021/05/07 07:32:02;;;;;;;6.43;5.60;;;;;;;;;;5000783;28;20220;-61
2021/05/07 07:34:28;;;;;;;6.93;6.20;;;;;;;;;;5003703;28;20676;-60
2021/05/07 07:36:54;;;;;;;7.00;6.40;;;;;;;;;;5003754;28;20198;-63
2021/05/07 07:39:20;;;;;;;7.57;6.87;;;;;;;;;;5000758;28;20206;-61
2021/05/07 07:41:47;;;;;;;6.97;6.37;;;;;;;;;;5003021;28;20209;-62
2021/05/07 07:44:13;;;;;;;8.40;7.57;;;;;;;;;;5007450;28;20692;-60
2021/05/07 07:46:39;;;;;;;9.20;7.97;;;;;;;;;;5006123;28;20179;-60
2021/05/07 07:49:05;;;;;;;8.63;7.90;;;;;;;;;;4999940;28;20282;-62
2021/05/07 07:51:34;;;;;;;9.00;8.10;;;;;;;;;;5005845;28;20727;-62
2021/05/07 07:54:00;;;;;;;9.57;8.67;;;;;;;;;;5006859;28;20677;-62
2021/05/07 07:56:26;;;;;;;8.93;8.03;;;;;;;;;;5006322;28;20271;-62
2021/05/07 07:58:52;;;;;;;8.70;7.90;;;;;;;;;;5004641;28;20572;-62
2021/05/07 08:01:18;;;;;;;9.10;7.37;;;;;;;;;;5003344;28;20257;-60
2021/05/07 08:03:45;;;;;;;8.77;7.87;;;;;;;;;;5007045;28;20208;-60
2021/05/07 08:06:11;;;;;;;8.50;7.73;;;;;;;;;;5006865;28;20541;-61
2021/05/07 08:08:37;;;;;;;7.53;6.97;;;;;;;;;;5002740;28;20272;-61
2021/05/07 08:11:03;;;;;;;7.50;6.70;;;;;;;;;;5001603;28;20263;-60
2021/05/07 08:13:29;;;;;;;7.63;7.03;;;;;;;;;;5003387;28;20207;-62
2021/05/07 08:15:55;;;;;;;7.40;6.80;;;;;;;;;;5000123;28;20680;-61
2021/05/07 08:18:21;;;;;;;7.17;6.47;;;;;;;;;;4999772;28;20200;-61
2021/05/07 08:20:47;;;;;;;7.10;6.50;;;;;;;;;;5004089;28;20275;-63
2021/05/07 08:23:13;;;;;;;8.27;7.60;;;;;;;;;;5000606;28;20684;-63
2021/05/07 08:25:39;;;;;;;7.53;6.93;;;;;;;;;;4998507;28;20214;-63
2021/05/07 08:28:05;;;;;;;10.50;7.03;;;;;;;;;;5005379;28;20208;-63
2021/05/07 08:30:31;;;;;;;7.93;7.17;;;;;;;;;;5013748;28;20695;-61
2021/05/07 08:32:57;;;;;;;7.77;7.17;;;;;;;;;;5003664;28;20177;-62
2021/05/07 08:35:24;;;;;;;7.07;6.33;;;;;;;;;;4998025;28;20719;-59
2021/05/07 08:37:51;;;;;;;7.13;6.53;;;;;;;;;;4999407;28;20190;-64
2021/05/07 08:40:17;;;;;;;7.47;6.77;;;;;;;;;;4997783;28;20217;-63
2021/05/07 08:42:44;;;;;;;5.90;5.30;;;;;;;;;;5003798;28;20670;-63
2021/05/07 08:45:10;;;;;;;6.10;5.17;;;;;;;;;;5001619;28;20184;-63
2021/05/07 08:47:37;;;;;;;6.40;5.60;;;;;;;;;;5001414;28;20192;-61
2021/05/07 08:50:04;;;;;;;4.83;4.43;;;;;;;;;;4995868;28;20751;-60
2021/05/07 08:52:30;;;;;;;6.17;4.67;;;;;;;;;;4997002;28;20204;-62
2021/05/07 08:54:57;;;;;;;5.20;4.70;;;;;;;;;;4998783;28;20243;-61
2021/05/07 08:57:23;;;;;;;5.13;4.72;;;;;;;;;;4998246;28;20192;-61
2021/05/07 08:59:50;;;;;;;5.05;4.63;;;;;;;;;;4999312;28;20205;-61
2021/05/07 09:02:29;;;;;;;3.85;3.55;;;;;;;;;;5001814;28;20726;-61
2021/05/07 09:04:56;;;;;;;3.90;3.60;;;;;;;;;;5006043;28;20254;-62
2021/05/07 09:07:23;;;;;;;4.07;3.78;;;;;;;;;;5001446;28;20594;-61
2021/05/07 09:09:50;;;;;;;3.92;3.63;;;;;;;;;;5004479;28;20193;-60
2021/05/07 09:12:28;;;;;;;4.38;3.97;;;;;;;;;;5002319;28;20189;-63
2021/05/07 09:14:55;;;;;;;4.10;3.60;;;;;;;;;;5000349;28;20266;-63
2021/05/07 09:17:22;;;;;;;4.85;3.10;;;;;;;;;;4999781;28;20197;-61
2021/05/07 09:19:49;;;;;;;4.57;3.58;;;;;;;;;;5005556;28;20252;-63
2021/05/07 09:22:25;;;;;;;3.85;3.42;;;;;;;;;;5004126;28;20219;-62
2021/05/07 09:24:51;;;;;;;3.33;3.05;;;;;;;;;;4998862;28;20758;-62
2021/05/07 09:27:21;;;;;;;4.38;3.38;;;;;;;;;;4996947;28;20264;-62
2021/05/07 09:29:47;;;;;;;4.47;3.50;;;;;;;;;;5001981;28;20240;-61
2021/05/07 09:32:13;;;;;;;3.88;3.38;;;;;;;;;;5001660;28;20707;-62
2021/05/07 09:34:39;;;;;;;3.97;3.58;;;;;;;;;;5003024;28;20200;-61
2021/05/07 09:37:17;;;;;;;3.58;3.00;;;;;;;;;;5003154;28;20192;-62
2021/05/07 09:39:43;;;;;;;4.40;3.80;;;;;;;;;;5002013;28;20193;-62
2021/05/07 09:42:09;;;;;;;11.70;6.13;;;;;;;;;;5000509;28;20208;-62
2021/05/07 09:44:36;;;;;;;69.15;30.55;;;;;;;;;;5000503;28;20271;-62
2021/05/07 09:47:12;;;;;;;8.52;5.70;;;;;;;;;;5003941;28;20185;-61
2021/05/07 09:49:38;;;;;;;4.68;3.60;;;;;;;;;;5004365;28;20188;-61
2021/05/07 09:52:05;;;;;;;3.88;3.05;;;;;;;;;;5001397;28;20631;-62
2021/05/07 09:54:31;;;;;;;4.05;3.45;;;;;;;;;;5000919;28;20181;-61
2021/05/07 09:56:57;;;;;;;3.58;3.28;;;;;;;;;;4999857;28;20618;-62
2021/05/07 09:59:24;;;;;;;4.53;3.17;;;;;;;;;;5005910;28;20277;-63
2021/05/07 10:01:50;;;;;;;4.65;3.40;;;;;;;;;;4995609;28;20266;-63
2021/05/07 10:04:16;;;;;;;3.47;3.17;;;;;;;;;;5000058;28;20212;-63
2021/05/07 10:06:43;;;;;;;3.55;3.25;;;;;;;;;;5002041;28;20187;-62
2021/05/07 10:09:10;;;;;;;3.60;2.95;;;;;;;;;;5003530;28;20181;-62
2021/05/07 10:11:43;;;;;;;3.00;2.80;;;;;;;;;;4995739;28;20469;-60
2021/05/07 10:14:15;;;;;;;3.75;3.20;;;;;;;;;;5001958;28;20216;-62
2021/05/07 10:16:42;;;;;;;5.20;2.85;;;;;;;;;;4989497;28;20187;-61
2021/05/07 10:19:10;;;;;;;3.65;2.88;;;;;;;;;;4997073;28;20185;-61
2021/05/07 10:21:39;;;;;;;4.88;3.50;;;;;;;;;;5001545;28;20209;-62
2021/05/07 10:24:06;;;;;;;4.97;4.47;;;;;;;;;;4998083;28;20200;-61
2021/05/07 10:26:52;;;;;;;6.18;4.07;;;;;;;;;;4995031;28;20574;-62
2021/05/07 10:29:25;;;;;;;3.20;2.90;;;;;;;;;;4996155;28;20264;-62
2021/05/07 10:31:52;;;;;;;3.35;2.67;;;;;;;;;;4998195;28;20216;-62
2021/05/07 10:34:19;;;;;;;3.83;2.42;;;;;;;;;;5000880;28;20276;-61
2021/05/07 10:36:49;;;;;;;3.20;2.90;;;;;;;;;;4999091;28;20204;-66
2021/05/07 10:39:19;;;;;;;3.38;3.00;;;;;;;;;;4999474;28;20224;-62
2021/05/07 10:41:46;;;;;;;3.13;2.83;;;;;;;;;;5004046;28;20588;-63
2021/05/07 10:44:13;;;;;;;2.85;2.65;;;;;;;;;;5000556;28;20222;-62
2021/05/07 10:46:40;;;;;;;4.75;3.10;;;;;;;;;;4999867;28;20223;-62
2021/05/07 10:49:06;;;;;;;4.43;3.17;;;;;;;;;;5002105;28;20189;-62
2021/05/07 10:51:32;;;;;;;2.60;2.38;;;;;;;;;;5001342;28;20197;-61
2021/05/07 10:54:06;;;;;;;2.92;2.38;;;;;;;;;;4998177;28;20273;-62
2021/05/07 10:56:37;;;;;;;3.00;2.70;;;;;;;;;;4998116;28;20216;-62
2021/05/07 10:59:13;;;;;;;3.20;2.90;;;;;;;;;;4993542;28;20665;-63
2021/05/07 11:01:39;;;;;;;2.78;2.58;;;;;;;;;;5003016;28;20255;-61
2021/05/07 11:04:08;;;;;;;3.58;3.28;;;;;;;;;;4999140;28;20263;-61
2021/05/07 11:06:47;;;;;;;3.35;2.92;;;;;;;;;;4997739;28;20181;-62
2021/05/07 11:09:17;;;;;;;3.00;2.80;;;;;;;;;;4996935;28;20186;-63
2021/05/07 11:11:43;;;;;;;8.10;3.65;;;;;;;;;;4998328;28;20684;-63
2021/05/07 11:14:12;;;;;;;4.10;3.38;;;;;;;;;;4998705;28;20192;-63
2021/05/07 11:16:39;;;;;;;4.38;3.15;;;;;;;;;;4995232;28;20641;-63
2021/05/07 11:19:05;;;;;;;3.55;3.22;;;;;;;;;;5002266;28;20185;-62
2021/05/07 11:21:31;;;;;;;6.38;3.28;;;;;;;;;;4998660;28;20201;-62
2021/05/07 11:23:57;;;;;;;3.22;2.92;;;;;;;;;;5001941;28;20233;-62
2021/05/07 11:26:34;;;;;;;3.17;2.85;;;;;;;;;;4997380;28;20295;-61
2021/05/07 11:29:00;;;;;;;2.72;2.47;;;;;;;;;;5001183;28;20224;-61
2021/05/07 11:31:27;;;;;;;2.90;2.60;;;;;;;;;;5001386;28;20205;-63
2021/05/07 11:33:53;;;;;;;3.67;3.00;;;;;;;;;;5006603;28;20192;-62
2021/05/07 11:36:19;;;;;;;2.97;2.60;;;;;;;;;;5000126;28;20186;-62
2021/05/07 11:38:45;;;;;;;3.22;2.88;;;;;;;;;;5001774;28;20221;-63
2021/05/07 11:41:18;;;;;;;3.50;3.00;;;;;;;;;;4999942;28;20225;-62
2021/05/07 11:43:44;;;;;;;2.78;2.53;;;;;;;;;;5002036;28;20209;-64
2021/05/07 11:46:10;;;;;;;3.38;2.83;;;;;;;;;;4997686;28;20181;-64
2021/05/07 11:48:37;;;;;;;2.95;2.75;;;;;;;;;;5001604;28;20673;-62
2021/05/07 11:51:06;;;;;;;3.13;2.45;;;;;;;;;;5001546;28;20220;-61
2021/05/07 11:53:34;;;;;;;3.17;2.67;;;;;;;;;;5005875;28;20186;-65
2021/05/07 11:56:00;;;;;;;3.30;2.95;;;;;;;;;;5000297;28;20239;-62
2021/05/07 11:58:33;;;;;;;3.33;2.50;;;;;;;;;;5003665;28;20672;-63
2021/05/07 12:00:59;;;;;;;5.60;2.70;;;;;;;;;;5002536;28;20216;-63
2021/05/07 12:03:35;;;;;;;2.65;2.38;;;;;;;;;;5003266;28;20212;-63
2021/05/07 12:06:01;;;;;;;3.15;2.70;;;;;;;;;;4997389;28;20185;-61
2021/05/07 12:08:27;;;;;;;4.55;2.60;;;;;;;;;;5002993;28;20250;-64
2021/05/07 12:10:53;;;;;;;3.08;2.78;;;;;;;;;;5004029;28;20668;-63
2021/05/07 12:13:25;;;;;;;4.07;2.95;;;;;;;;;;4999263;28;20182;-61
2021/05/07 12:15:52;;;;;;;3.55;3.00;;;;;;;;;;5000432;28;20634;-62
2021/05/07 12:18:19;;;;;;;2.70;2.50;;;;;;;;;;5003867;28;20217;-62
2021/05/07 12:20:49;;;;;;;4.03;2.80;;;;;;;;;;4996674;28;20208;-62
2021/05/07 12:23:15;;;;;;;2.95;2.63;;;;;;;;;;5000211;28;20214;-62
2021/05/07 12:25:45;;;;;;;3.45;2.88;;;;;;;;;;5004415;28;20193;-63
2021/05/07 12:28:15;;;;;;;4.78;2.80;;;;;;;;;;4995964;28;20683;-62
2021/05/07 12:30:44;;;;;;;4.22;2.78;;;;;;;;;;4996852;28;20208;-62
2021/05/07 12:33:16;;;;;;;3.28;2.90;;;;;;;;;;4999751;28;20200;-61
2021/05/07 12:35:49;;;;;;;3.55;2.50;;;;;;;;;;4991685;28;20236;-62
2021/05/07 12:38:31;;;;;;;3.05;2.75;;;;;;;;;;5002061;28;20695;-62
2021/05/07 12:41:11;;;;;;;3.05;2.75;;;;;;;;;;4998012;28;20697;-62
2021/05/07 12:43:38;;;;;;;3.67;2.75;;;;;;;;;;5004034;28;20209;-61
2021/05/07 12:46:05;;;;;;;2.67;2.45;;;;;;;;;;5005384;28;20177;-63
2021/05/07 12:48:31;;;;;;;2.83;2.50;;;;;;;;;;5000188;28;20182;-62
2021/05/07 12:51:00;;;;;;;3.03;2.60;;;;;;;;;;5001094;28;20292;-63
2021/05/07 12:53:26;;;;;;;3.00;2.63;;;;;;;;;;4997471;28;20276;-62
2021/05/07 12:55:52;;;;;;;3.42;2.67;;;;;;;;;;5003940;28;20193;-62
2021/05/07 12:58:19;;;;;;;2.88;2.58;;;;;;;;;;5001071;28;20192;-62
2021/05/07 13:00:45;;;;;;;3.28;2.83;;;;;;;;;;4997547;28;20201;-62
2021/05/07 13:03:12;;;;;;;3.17;2.25;;;;;;;;;;5012042;28;20216;-62
2021/05/07 13:05:39;;;;;;;3.72;2.47;;;;;;;;;;5004037;28;20238;-63
2021/05/07 13:08:05;;;;;;;10.52;2.78;;;;;;;;;;4999646;28;20779;-61
2021/05/07 13:10:32;;;;;;;3.92;2.78;;;;;;;;;;5003143;28;20253;-62
2021/05/07 13:12:58;;;;;;;2.88;2.67;;;;;;;;;;5004927;28;20177;-62
2021/05/07 13:15:25;;;;;;;3.05;2.67;;;;;;;;;;5002489;28;20189;-63
2021/05/07 13:17:51;;;;;;;2.95;2.65;;;;;;;;;;4999304;28;20205;-62
2021/05/07 13:20:18;;;;;;;3.15;2.70;;;;;;;;;;4995189;28;20231;-62
2021/05/07 13:22:45;;;;;;;3.90;2.30;;;;;;;;;;4998543;28;20197;-60
2021/05/07 13:25:12;;;;;;;2.80;2.58;;;;;;;;;;5005945;28;20773;-64
2021/05/07 13:27:39;;;;;;;3.47;2.67;;;;;;;;;;4999723;28;20264;-63
2021/05/07 13:30:07;;;;;;;3.72;3.00;;;;;;;;;;4996236;28;20216;-63
2021/05/07 13:32:33;;;;;;;3.15;2.70;;;;;;;;;;4995754;28;20339;-61
2021/05/07 13:34:59;;;;;;;3.17;2.95;;;;;;;;;;4981673;28;20247;-62
2021/05/07 13:37:25;;;;;;;2.85;2.65;;;;;;;;;;5001588;28;20618;-61
2021/05/07 13:39:51;;;;;;;4.72;3.47;;;;;;;;;;5000020;28;20232;-62
2021/05/07 13:42:17;;;;;;;3.53;3.15;;;;;;;;;;5000677;28;20240;-62
2021/05/07 13:44:43;;;;;;;3.28;2.97;;;;;;;;;;4993782;28;20205;-61
2021/05/07 13:47:09;;;;;;;3.03;2.80;;;;;;;;;;5001096;28;20707;-61
2021/05/07 13:49:35;;;;;;;3.20;2.70;;;;;;;;;;5000451;28;20177;-61
2021/05/07 13:52:01;;;;;;;3.65;3.20;;;;;;;;;;5006940;28;20323;-61
2021/05/07 13:54:28;;;;;;;4.85;3.38;;;;;;;;;;5003056;28;20193;-61
2021/05/07 13:56:55;;;;;;;4.28;2.90;;;;;;;;;;5011368;28;20182;-61
2021/05/07 13:59:21;;;;;;;4.80;2.60;;;;;;;;;;5004071;28;20204;-61
2021/05/07 14:01:48;;;;;;;3.75;2.40;;;;;;;;;;4998042;28;20858;-62
2021/05/07 14:04:14;;;;;;;5.50;2.38;;;;;;;;;;5000645;28;20812;-63
2021/05/07 14:06:40;;;;;;;3.22;2.97;;;;;;;;;;4999444;28;20201;-62
2021/05/07 14:09:07;;;;;;;5.25;3.10;;;;;;;;;;4996366;28;20193;-62
2021/05/07 14:11:34;;;;;;;2.80;2.60;;;;;;;;;;5002817;28;20616;-63
2021/05/07 14:14:00;;;;;;;3.75;2.92;;;;;;;;;;5005233;28;20216;-63
2021/05/07 14:16:26;;;;;;;2.88;2.67;;;;;;;;;;4995556;28;20553;-63
2021/05/07 14:18:52;;;;;;;6.43;3.08;;;;;;;;;;5004867;28;20195;-62
2021/05/07 14:21:18;;;;;;;5.18;2.95;;;;;;;;;;5003764;28;20216;-63
2021/05/07 14:23:44;;;;;;;4.43;2.83;;;;;;;;;;5005776;28;20227;-62
2021/05/07 14:26:10;;;;;;;3.05;2.85;;;;;;;;;;4996471;28;20585;-63
2021/05/07 14:28:36;;;;;;;7.28;3.10;;;;;;;;;;5011269;28;20496;-63
2021/05/07 14:31:02;;;;;;;3.65;2.58;;;;;;;;;;5005040;28;20208;-62
2021/05/07 14:33:28;;;;;;;3.70;2.47;;;;;;;;;;5004144;28;20193;-63
2021/05/07 14:35:55;;;;;;;4.22;2.58;;;;;;;;;;4995336;28;20319;-63
2021/05/07 14:38:21;;;;;;;5.85;2.50;;;;;;;;;;5007428;28;20196;-63
2021/05/07 14:40:47;;;;;;;3.28;2.30;;;;;;;;;;5001689;28;20222;-64